createdAt,value
2023-04-18T00:01:24.851Z,15.20
2023-04-18T00:16:24.679Z,16.00
2023-04-18T00:31:24.582Z,15.80
2023-04-18T00:46:24.415Z,15.60
2023-04-18T01:01:24.220Z,14.80
2023-04-18T01:16:24.135Z,14.90
2023-04-18T01:31:23.949Z,15.20
2023-04-18T01:46:23.848Z,15.60
2023-04-18T02:01:23.587Z,14.10
2023-04-18T02:16:23.499Z,14.80
2023-04-18T02:31:23.295Z,15.70
2023-04-18T02:46:23.248Z,14.10
2023-04-18T03:01:22.996Z,13.50
2023-04-18T03:16:26.036Z,13.10
2023-04-18T03:31:22.740Z,12.60
2023-04-18T03:46:22.541Z,13.00
2023-04-18T04:01:22.355Z,13.70
2023-04-18T04:16:22.245Z,13.30
2023-04-18T04:31:22.208Z,14.50
2023-04-18T04:46:21.906Z,14.60
2023-04-18T05:01:21.775Z,15.80
2023-04-18T05:16:21.616Z,15.10
2023-04-18T05:31:21.439Z,15.00
2023-04-18T05:46:21.372Z,14.70
2023-04-18T06:01:21.098Z,15.20
2023-04-18T06:16:21.059Z,15.70
2023-04-18T06:31:20.812Z,14.30
2023-04-18T06:46:20.746Z,13.40
2023-04-18T07:01:20.490Z,13.70
2023-04-18T07:16:20.357Z,12.50
2023-04-18T07:31:20.223Z,11.80
2023-04-18T07:46:20.035Z,11.30
2023-04-18T08:01:19.875Z,11.60
2023-04-18T08:16:19.711Z,12.10
2023-04-18T08:31:19.552Z,11.70
2023-04-18T08:46:19.534Z,11.40
2023-04-18T09:01:19.280Z,12.20
2023-04-18T09:16:19.097Z,11.20
2023-04-18T09:31:18.997Z,11.10
2023-04-18T09:46:18.896Z,11.10
2023-04-18T10:01:18.613Z,10.50
2023-04-18T10:16:20.016Z,10.90
2023-04-18T10:31:18.382Z,11.30
2023-04-18T10:46:31.088Z,11.20
2023-04-18T11:01:18.011Z,11.10
2023-04-18T11:16:17.834Z,10.70
2023-04-18T11:31:17.700Z,11.80
2023-04-18T11:46:17.593Z,10.90
2023-04-18T12:01:17.427Z,10.90
2023-04-18T12:16:17.279Z,11.10
2023-04-18T12:31:17.099Z,12.20
2023-04-18T12:46:16.963Z,13.20
2023-04-18T13:01:16.753Z,14.00
2023-04-18T13:16:16.607Z,13.80
2023-04-18T13:31:17.246Z,12.90
2023-04-18T13:46:16.334Z,11.90
2023-04-18T14:01:16.301Z,12.00
2023-04-18T14:16:15.978Z,10.90
2023-04-18T14:31:15.765Z,9.00
2023-04-18T14:46:15.829Z,10.20
2023-04-18T15:01:15.476Z,9.60
2023-04-18T15:16:15.323Z,9.50
2023-04-18T15:31:15.201Z,9.20
2023-04-18T15:46:15.051Z,6.20
2023-04-18T16:01:14.854Z,5.80
2023-04-18T16:16:14.700Z,5.10
2023-04-18T16:31:14.572Z,4.30
2023-04-18T16:46:14.403Z,4.60
2023-04-18T17:01:14.155Z,4.00
2023-04-18T17:16:14.006Z,4.00
2023-04-18T17:31:14.255Z,4.10
2023-04-18T17:46:13.843Z,3.60
2023-04-18T18:01:13.542Z,4.00
2023-04-18T18:16:13.353Z,3.90
2023-04-18T18:31:13.226Z,4.60
2023-04-18T18:46:13.175Z,4.50
2023-04-18T19:01:12.988Z,4.20
2023-04-18T19:16:12.864Z,4.00
2023-04-18T19:31:12.664Z,4.40
2023-04-18T19:46:12.423Z,4.50
2023-04-18T20:01:12.702Z,5.10
2023-04-18T20:16:12.237Z,4.90
2023-04-18T20:31:12.004Z,5.40
2023-04-18T20:46:11.846Z,5.50
2023-04-18T21:01:11.643Z,5.90
2023-04-18T21:16:11.538Z,6.10
2023-04-18T21:31:11.344Z,6.80
2023-04-18T21:46:11.174Z,7.00
2023-04-18T22:01:11.189Z,7.30
2023-04-18T22:16:10.860Z,7.70
2023-04-18T22:31:10.749Z,7.40
2023-04-18T22:46:10.548Z,6.30
2023-04-18T23:01:10.364Z,5.90
2023-04-18T23:16:10.226Z,5.20
2023-04-18T23:31:10.103Z,4.50
2023-04-18T23:46:09.934Z,5.80
